Time;durP1;ratioP1;P1;durP2;ratioP2;P2;SDS_P1;SDS_P2;PMS_P1;PMS_P2;Temp;Humidity;BMP_temperature;BMP_pressure;BME280_temperature;BME280_humidity;BME280_pressure;Samples;Min_cycle;Max_cycle;Signal;HPM_P1;HPM_P2
2021/12/26 00:02:02;;;;;;;13.38;8.00;;;;;;;9.39;70.93;101847.84;5069526;28;20500;-72
2021/12/26 00:04:31;;;;;;;14.35;7.72;;;;;;;9.26;71.24;101855.22;5084894;28;20113;-72
2021/12/26 00:06:59;;;;;;;9.80;6.35;;;;;;;9.19;71.55;101851.44;5070251;28;20051;-72
2021/12/26 00:09:28;;;;;;;7.15;4.70;;;;;;;9.22;71.90;101856.84;5068219;28;20041;-72
2021/12/26 00:11:56;;;;;;;10.10;4.63;;;;;;;9.18;72.04;101839.13;5068855;28;20071;-73
2021/12/26 00:14:24;;;;;;;7.30;3.47;;;;;;;9.24;71.92;101855.19;5069657;28;20059;-72
2021/12/26 00:16:52;;;;;;;12.88;6.18;;;;;;;9.34;71.63;101849.41;5067904;28;20044;-71
2021/12/26 00:19:20;;;;;;;29.80;27.05;;;;;;;9.37;71.68;101856.53;5069881;28;20040;-71
2021/12/26 00:21:48;;;;;;;55.55;50.60;;;;;;;9.22;71.31;101855.94;5069734;28;20037;-74
2021/12/26 00:24:16;;;;;;;48.20;43.97;;;;;;;9.06;71.84;101857.97;5069226;28;20044;-73
2021/12/26 00:26:45;;;;;;;6.10;4.05;;;;;;;9.07;72.03;101851.88;5084676;28;20190;-73
2021/12/26 00:29:13;;;;;;;4.20;2.65;;;;;;;9.21;72.43;101849.78;5068324;28;20068;-73
2021/12/26 00:31:42;;;;;;;4.90;3.42;;;;;;;9.32;71.97;101848.44;5068017;28;20416;-73
2021/12/26 00:34:09;;;;;;;12.98;11.88;;;;;;;9.25;71.38;101850.81;5067494;28;20068;-73
2021/12/26 00:36:37;;;;;;;33.47;30.80;;;;;;;9.16;71.57;101846.06;5067817;28;20059;-73
2021/12/26 00:39:05;;;;;;;15.73;14.32;;;;;;;9.23;71.84;101849.84;5068875;28;20040;-73
2021/12/26 00:41:33;;;;;;;18.77;16.98;;;;;;;9.28;71.45;101846.53;5066970;28;20598;-73
2021/12/26 00:44:02;;;;;;;18.30;16.35;;;;;;;9.30;71.44;101847.50;5067728;28;20044;-73
2021/12/26 00:46:30;;;;;;;6.38;5.20;;;;;;;9.18;71.21;101845.31;5069041;28;20080;-73
2021/12/26 00:48:57;;;;;;;8.27;6.90;;;;;;;9.10;71.25;101852.00;5067751;28;20539;-73
2021/12/26 00:51:25;;;;;;;8.60;6.28;;;;;;;9.10;71.00;101848.47;5069052;28;20400;-74
2021/12/26 00:53:53;;;;;;;19.52;14.00;;;;;;;9.13;71.31;101856.47;5084647;28;20500;-73
2021/12/26 00:56:21;;;;;;;10.73;7.30;;;;;;;9.22;70.95;101851.56;5068942;28;20045;-73
2021/12/26 00:58:49;;;;;;;6.35;4.47;;;;;;;9.33;70.85;101858.13;5084223;28;20048;-74
2021/12/26 01:01:20;;;;;;;5.70;3.13;;;;;;;9.37;71.17;101857.44;5084911;28;20044;-73
2021/12/26 01:03:48;;;;;;;9.13;7.00;;;;;;;9.39;71.08;101860.09;5067934;28;20043;-74
2021/12/26 01:06:16;;;;;;;3.33;2.10;;;;;;;9.39;71.04;101855.72;5084298;28;20083;-73
2021/12/26 01:08:48;;;;;;;5.78;3.83;;;;;;;9.33;70.90;101863.41;5067953;28;20040;-73
2021/12/26 01:11:22;;;;;;;9.38;8.45;;;;;;;9.31;70.84;101866.84;5067573;28;20048;-73
2021/12/26 01:13:52;;;;;;;12.05;8.30;;;;;;;9.32;70.64;101853.69;5066740;28;20043;-73
2021/12/26 01:16:47;;;;;;;13.20;10.18;;;;;;;9.30;70.28;101855.41;5069942;28;20044;-73
2021/12/26 01:19:18;;;;;;;5.70;3.78;;;;;;;9.17;70.28;101848.78;5067731;28;20138;-73
2021/12/26 01:21:47;;;;;;;5.57;3.65;;;;;;;9.15;70.71;101853.06;5063954;28;20036;-73
2021/12/26 01:24:19;;;;;;;3.38;2.08;;;;;;;9.24;71.15;101859.53;5068986;28;20040;-73
2021/12/26 01:26:47;;;;;;;4.25;2.38;;;;;;;9.10;70.49;101851.09;5073010;28;20049;-73
2021/12/26 01:29:24;;;;;;;7.68;5.75;;;;;;;9.00;70.77;101847.19;5070241;28;20043;-73
2021/12/26 01:31:54;;;;;;;8.10;4.90;;;;;;;9.08;70.88;101844.88;5072849;28;20048;-73
2021/12/26 01:34:39;;;;;;;3.78;2.35;;;;;;;9.14;70.69;101847.75;5072560;28;20396;-73
2021/12/26 01:37:42;;;;;;;9.52;5.88;;;;;;;9.09;70.41;101838.78;5067193;28;20587;-74
2021/12/26 01:40:28;;;;;;;3.85;2.58;;;;;;;9.14;70.51;101837.19;5072027;28;20036;-73
2021/12/26 01:43:21;;;;;;;5.22;3.13;;;;;;;9.27;70.45;101843.84;5071833;28;20112;-73
2021/12/26 01:45:55;;;;;;;8.15;5.38;;;;;;;9.28;70.23;101836.00;5070812;28;20140;-73
2021/12/26 01:48:26;;;;;;;6.95;3.40;;;;;;;9.32;70.19;101832.63;5071090;28;20545;-73
2021/12/26 01:50:54;;;;;;;4.55;2.65;;;;;;;9.35;70.34;101829.22;5088035;28;20040;-73
2021/12/26 01:53:24;;;;;;;3.25;1.92;;;;;;;9.43;70.61;101826.03;5071493;28;20061;-74
2021/12/26 01:55:54;;;;;;;3.38;1.90;;;;;;;9.48;70.61;101829.75;5087454;28;20047;-73
2021/12/26 01:58:25;;;;;;;2.42;1.70;;;;;;;9.56;70.89;101824.75;5070789;28;20497;-73
2021/12/26 02:00:57;;;;;;;3.47;1.83;;;;;;;9.57;70.78;101819.53;5087214;28;20044;-73
2021/12/26 02:03:27;;;;;;;4.57;1.90;;;;;;;9.64;70.71;101822.41;5076203;28;20037;-73
2021/12/26 02:05:55;;;;;;;3.85;1.90;;;;;;;9.65;70.65;101817.16;5071094;28;20068;-73
2021/12/26 02:08:23;;;;;;;2.78;1.75;;;;;;;9.64;70.74;101819.78;5070907;28;20045;-73
2021/12/26 02:10:51;;;;;;;2.53;1.65;;;;;;;9.60;71.12;101817.00;5088002;28;20562;-74
2021/12/26 02:13:20;;;;;;;3.17;1.90;;;;;;;9.56;71.09;101819.47;5070576;28;20622;-73
2021/12/26 02:15:51;;;;;;;2.97;2.05;;;;;;;9.50;71.25;101822.78;5070597;28;20064;-74
2021/12/26 02:18:21;;;;;;;3.38;1.80;;;;;;;9.46;71.33;101819.97;5071087;28;20044;-74
2021/12/26 02:21:05;;;;;;;3.20;2.10;;;;;;;9.44;71.23;101812.03;5070445;28;20432;-73
2021/12/26 02:23:58;;;;;;;2.92;1.73;;;;;;;9.43;71.23;101810.22;5071337;28;20037;-73
2021/12/26 02:29:10;;;;;;;10.93;9.93;;;;;;;9.33;71.35;101797.53;5086716;28;19921;-73
2021/12/26 02:31:38;;;;;;;6.53;5.82;;;;;;;9.36;71.01;101795.03;5070698;28;20052;-73
2021/12/26 02:34:05;;;;;;;5.20;4.20;;;;;;;9.38;70.99;101796.00;5087039;28;20032;-73
2021/12/26 02:36:35;;;;;;;9.93;8.73;;;;;;;9.40;71.11;101783.75;5069668;28;20456;-73
2021/12/26 02:39:04;;;;;;;8.98;7.90;;;;;;;9.42;70.94;101787.34;5067310;28;20041;-74
2021/12/26 02:41:32;;;;;;;10.65;6.93;;;;;;;9.42;70.82;101792.63;5068328;28;20037;-73
2021/12/26 02:44:00;;;;;;;7.47;4.40;;;;;;;9.40;70.59;101788.13;5069387;28;20045;-73
2021/12/26 02:46:29;;;;;;;8.15;3.70;;;;;;;9.39;70.59;101784.59;5086107;28;20061;-73
2021/12/26 02:48:57;;;;;;;5.00;3.17;;;;;;;9.39;70.84;101779.31;5069931;28;20047;-73
2021/12/26 02:51:25;;;;;;;4.05;2.40;;;;;;;9.40;70.92;101790.75;5069539;28;20140;-73
2021/12/26 02:53:55;;;;;;;2.78;1.90;;;;;;;9.41;71.10;101788.19;5053945;28;20400;-73
2021/12/26 02:56:22;;;;;;;4.22;2.40;;;;;;;9.46;71.11;101791.88;5068984;28;20101;-74
2021/12/26 02:58:50;;;;;;;3.15;2.28;;;;;;;9.46;70.89;101789.25;5070021;28;20040;-74
2021/12/26 03:01:22;;;;;;;4.55;2.60;;;;;;;9.48;71.17;101786.66;5069654;28;20040;-74
2021/12/26 03:03:50;;;;;;;6.10;3.55;;;;;;;9.50;71.19;101791.16;5082607;28;20043;-74
2021/12/26 03:06:25;;;;;;;6.15;2.97;;;;;;;9.53;71.11;101788.63;5086577;28;20037;-74
2021/12/26 03:08:55;;;;;;;3.92;2.10;;;;;;;9.57;71.24;101781.75;5066212;28;20396;-74
2021/12/26 03:11:23;;;;;;;5.18;2.40;;;;;;;9.62;71.13;101789.81;5086398;28;20033;-74
2021/12/26 03:13:51;;;;;;;4.50;2.67;;;;;;;9.65;71.09;101789.94;5069815;28;20032;-74
2021/12/26 03:16:18;;;;;;;3.58;2.17;;;;;;;9.63;71.23;101791.59;5070759;28;20120;-74
2021/12/26 03:18:46;;;;;;;3.45;2.10;;;;;;;9.64;71.16;101799.56;5070981;28;20044;-74
2021/12/26 03:21:13;;;;;;;2.72;1.88;;;;;;;9.66;71.24;101800.50;5070848;28;20044;-73
2021/12/26 03:23:41;;;;;;;3.55;2.05;;;;;;;9.71;71.51;101808.59;5069551;28;20401;-73
2021/12/26 03:26:10;;;;;;;5.10;1.92;;;;;;;9.73;71.28;101805.16;5069183;28;20707;-73
2021/12/26 03:28:38;;;;;;;3.25;1.70;;;;;;;9.70;71.15;101814.72;5069085;28;20408;-73
2021/12/26 03:31:06;;;;;;;3.45;1.77;;;;;;;9.66;71.15;101811.06;5069468;28;20048;-73
2021/12/26 03:33:36;;;;;;;3.25;1.92;;;;;;;9.65;71.20;101818.94;5068751;28;20131;-73
2021/12/26 03:36:05;;;;;;;5.80;3.83;;;;;;;9.67;71.21;101823.41;5069011;28;20052;-73
2021/12/26 03:38:33;;;;;;;2.75;2.15;;;;;;;9.72;70.96;101823.56;5069335;28;20048;-73
2021/12/26 03:41:12;;;;;;;4.82;3.10;;;;;;;9.77;70.73;101822.91;5085706;28;20050;-73
2021/12/26 03:43:43;;;;;;;5.82;2.80;;;;;;;9.78;70.53;101823.81;5068947;28;20488;-73
2021/12/26 03:46:11;;;;;;;5.50;4.07;;;;;;;9.81;70.33;101818.63;5085324;28;20049;-73
2021/12/26 03:48:40;;;;;;;4.28;2.95;;;;;;;9.81;70.43;101830.06;5069083;28;20125;-73
2021/12/26 03:51:08;;;;;;;5.07;3.30;;;;;;;9.79;70.25;101831.75;5052704;28;20511;-73
2021/12/26 03:53:36;;;;;;;4.65;2.95;;;;;;;9.79;70.18;101834.38;5068929;28;20045;-73
2021/12/26 03:56:05;;;;;;;3.13;2.00;;;;;;;9.82;70.11;101825.69;5052355;28;20037;-73
2021/12/26 03:58:38;;;;;;;3.47;2.20;;;;;;;9.88;70.14;101834.72;5068107;28;20036;-73
2021/12/26 04:01:05;;;;;;;2.75;2.20;;;;;;;9.90;70.19;101832.16;5085170;28;20500;-73
2021/12/26 04:03:33;;;;;;;4.03;3.47;;;;;;;9.93;70.00;101838.41;5068903;28;20400;-73
2021/12/26 04:06:02;;;;;;;3.42;2.63;;;;;;;9.93;69.79;101843.69;5068940;28;20044;-73
2021/12/26 04:08:36;;;;;;;6.00;2.75;;;;;;;9.94;69.91;101844.59;5068271;28;20044;-73
2021/12/26 04:11:05;;;;;;;3.22;2.40;;;;;;;9.97;69.78;101844.72;5068873;28;20033;-73
2021/12/26 04:13:35;;;;;;;3.45;2.22;;;;;;;9.99;69.74;101848.28;5060913;28;20037;-73
2021/12/26 04:16:04;;;;;;;4.60;2.30;;;;;;;10.00;69.68;101850.06;5075974;28;20048;-73
2021/12/26 04:18:33;;;;;;;3.83;1.95;;;;;;;9.95;69.76;101839.38;5067716;28;20040;-73
2021/12/26 04:21:00;;;;;;;3.80;2.00;;;;;;;9.92;69.93;101846.25;5051674;28;20041;-73
2021/12/26 04:23:33;;;;;;;3.72;2.05;;;;;;;9.91;69.97;101848.00;5085723;28;20090;-74
2021/12/26 04:26:01;;;;;;;4.05;2.15;;;;;;;9.89;69.95;101847.06;5068495;28;20045;-73
2021/12/26 04:28:29;;;;;;;2.88;2.28;;;;;;;9.89;69.68;101844.44;5067049;28;20044;-73
2021/12/26 04:30:58;;;;;;;4.72;2.70;;;;;;;9.91;69.69;101848.00;5068390;28;20385;-73
2021/12/26 04:33:30;;;;;;;3.15;1.83;;;;;;;9.91;69.65;101852.41;5068247;28;20044;-73
2021/12/26 04:35:58;;;;;;;2.42;1.80;;;;;;;9.88;69.58;101847.91;5077592;28;20099;-73
2021/12/26 04:38:25;;;;;;;3.88;2.03;;;;;;;9.90;69.53;101851.50;5067922;28;20063;-73
2021/12/26 04:40:53;;;;;;;3.20;2.00;;;;;;;9.91;69.43;101849.78;5084457;28;20382;-73
2021/12/26 04:43:22;;;;;;;3.35;2.00;;;;;;;9.91;69.46;101853.28;5068621;28;20051;-74
2021/12/26 04:46:16;;;;;;;2.65;1.63;;;;;;;9.91;69.59;101848.00;5084964;28;20044;-73
2021/12/26 04:49:00;;;;;;;2.92;2.00;;;;;;;9.89;69.24;101848.81;5067935;28;20044;-73
2021/12/26 04:51:27;;;;;;;3.20;2.17;;;;;;;9.82;69.43;101850.31;5067946;28;20036;-73
2021/12/26 04:54:00;;;;;;;4.72;2.38;;;;;;;9.79;69.27;101846.66;5085117;28;20516;-72
2021/12/26 04:56:27;;;;;;;2.88;1.98;;;;;;;9.76;69.73;101846.56;5084266;28;20064;-74
2021/12/26 04:58:55;;;;;;;3.25;2.17;;;;;;;9.77;70.00;101837.81;5067371;28;20563;-73
2021/12/26 05:01:23;;;;;;;3.70;1.85;;;;;;;9.81;70.11;101847.63;5084664;28;20045;-74
2021/12/26 05:03:51;;;;;;;2.83;1.85;;;;;;;9.83;70.17;101844.22;5067367;28;20451;-74
2021/12/26 05:06:20;;;;;;;2.00;1.70;;;;;;;9.88;70.14;101847.00;5084506;28;20131;-73
2021/12/26 05:08:48;;;;;;;3.05;1.70;;;;;;;9.93;70.24;101845.41;5051376;28;20082;-74
2021/12/26 05:11:16;;;;;;;2.45;1.63;;;;;;;9.96;69.94;101846.44;5084547;28;20503;-73
2021/12/26 05:13:43;;;;;;;2.72;1.83;;;;;;;10.01;70.25;101843.97;5051250;28;20101;-74
2021/12/26 05:16:11;;;;;;;2.40;1.40;;;;;;;10.02;70.11;101842.22;5084088;28;20055;-73
2021/12/26 05:18:40;;;;;;;2.20;1.63;;;;;;;10.07;69.97;101849.44;5065799;28;20040;-74
2021/12/26 05:21:08;;;;;;;2.65;1.83;;;;;;;10.12;69.79;101850.50;5048800;28;20094;-73
2021/12/26 05:23:39;;;;;;;2.63;1.95;;;;;;;10.16;69.90;101862.97;5084535;28;20047;-73
2021/12/26 05:26:06;;;;;;;2.58;1.90;;;;;;;10.12;69.71;101866.31;5068169;28;20044;-73
2021/12/26 05:28:35;;;;;;;3.50;1.92;;;;;;;10.14;69.74;101861.13;5067100;28;20094;-73
2021/12/26 05:31:05;;;;;;;4.88;2.70;;;;;;;10.13;69.79;101861.94;5053214;28;20052;-73
2021/12/26 05:33:41;;;;;;;2.53;1.90;;;;;;;10.10;69.89;101867.13;5065238;28;20090;-73
2021/12/26 05:36:09;;;;;;;3.60;1.80;;;;;;;10.16;69.98;101864.72;5066657;28;20396;-73
2021/12/26 05:38:41;;;;;;;3.92;1.88;;;;;;;10.23;69.94;101870.28;5082105;28;20492;-73
2021/12/26 05:41:09;;;;;;;3.20;2.22;;;;;;;10.28;69.79;101875.72;5078047;28;20573;-73
2021/12/26 05:43:43;;;;;;;2.20;1.23;;;;;;;10.27;69.78;101869.53;5083039;28;20492;-74
2021/12/26 05:46:10;;;;;;;3.63;1.30;;;;;;;10.40;69.51;101876.13;5084603;28;20044;-72
2021/12/26 05:48:38;;;;;;;3.65;1.45;;;;;;;10.56;69.13;101885.50;5087439;28;20047;-73
2021/12/26 05:51:16;;;;;;;1.63;1.40;;;;;;;10.66;68.66;101890.22;5104046;28;20036;-73
2021/12/26 05:54:05;;;;;;;3.78;1.52;;;;;;;10.72;68.62;101885.13;5087747;28;20052;-74
2021/12/26 05:56:33;;;;;;;1.88;1.23;;;;;;;10.73;68.27;101879.91;5084439;28;20094;-73
2021/12/26 05:59:01;;;;;;;1.25;1.00;;;;;;;10.80;67.97;101881.00;5087468;28;20122;-73
2021/12/26 06:01:28;;;;;;;1.50;1.30;;;;;;;10.87;67.78;101890.03;5087420;28;20060;-73
2021/12/26 06:03:56;;;;;;;1.45;1.00;;;;;;;10.93;67.53;101890.22;5089225;28;20079;-74
2021/12/26 06:06:24;;;;;;;1.30;0.85;;;;;;;10.97;67.21;101893.00;5097949;28;20131;-74
2021/12/26 06:08:54;;;;;;;1.27;1.02;;;;;;;11.03;67.05;101887.91;5087948;28;20519;-74
2021/12/26 06:11:24;;;;;;;1.63;1.23;;;;;;;11.09;66.87;101893.38;5086669;28;20063;-74
2021/12/26 06:13:52;;;;;;;1.85;1.30;;;;;;;11.11;66.94;101890.81;5082050;28;20109;-73
2021/12/26 06:16:19;;;;;;;2.00;1.27;;;;;;;11.13;66.89;101899.69;5096175;28;20040;-74
2021/12/26 06:18:47;;;;;;;3.17;1.40;;;;;;;11.13;66.82;101895.31;5059075;28;20571;-74
2021/12/26 06:21:34;;;;;;;1.52;1.27;;;;;;;11.17;66.95;101901.56;5087016;28;20040;-73
2021/12/26 06:24:21;;;;;;;2.50;1.23;;;;;;;11.42;67.08;101903.25;5088633;28;20128;-74
2021/12/26 06:27:10;;;;;;;2.97;1.05;;;;;;;11.73;66.82;101897.09;5071075;28;20448;-72
2021/12/26 06:29:56;;;;;;;3.63;1.27;;;;;;;12.02;66.11;101904.13;5061032;28;20056;-74
2021/12/26 06:32:42;;;;;;;1.65;0.95;;;;;;;12.28;65.51;101903.09;5075704;28;20036;-74
2021/12/26 06:35:28;;;;;;;2.53;1.00;;;;;;;12.57;64.70;101906.53;5081973;28;20499;-74
2021/12/26 06:38:25;;;;;;;0.98;0.80;;;;;;;12.83;63.56;101911.59;5068873;28;20074;-74
2021/12/26 06:41:12;;;;;;;1.40;0.93;;;;;;;13.07;63.67;101907.78;5053653;28;20048;-73
2021/12/26 06:44:08;;;;;;;1.92;1.10;;;;;;;13.33;63.29;101910.16;5067676;28;20169;-74
2021/12/26 06:46:59;;;;;;;0.60;0.52;;;;;;;13.56;63.26;101920.44;5076581;28;20753;-74
2021/12/26 06:49:33;;;;;;;1.00;0.57;;;;;;;13.77;62.68;101916.47;5072623;28;20176;-74
2021/12/26 06:52:01;;;;;;;1.48;0.80;;;;;;;13.98;62.59;101916.03;5113451;27;20046;-73
2021/12/26 06:54:28;;;;;;;0.90;0.52;;;;;;;14.15;61.57;101917.25;5110992;28;20491;-74
2021/12/26 06:56:56;;;;;;;2.22;0.60;;;;;;;14.31;60.54;101917.53;5092152;28;20544;-74
2021/12/26 06:59:25;;;;;;;3.47;0.90;;;;;;;14.47;59.26;101915.22;5081556;28;20043;-74
2021/12/26 07:01:54;;;;;;;1.42;0.60;;;;;;;14.60;58.51;101915.47;5105475;28;20048;-73
2021/12/26 07:04:24;;;;;;;0.88;0.52;;;;;;;14.77;58.23;101913.09;5106577;28;20040;-73
2021/12/26 07:06:52;;;;;;;1.13;0.77;;;;;;;14.93;57.57;101919.56;5107183;28;20044;-74
2021/12/26 07:09:30;;;;;;;0.88;0.68;;;;;;;15.11;57.04;101917.19;5089832;28;20063;-74
2021/12/26 07:12:00;;;;;;;2.05;0.60;;;;;;;15.26;56.68;101916.53;5083485;28;20045;-74
2021/12/26 07:14:52;;;;;;;3.28;0.50;;;;;;;15.42;56.52;101921.22;5076533;28;20036;-74
2021/12/26 07:17:20;;;;;;;1.60;0.70;;;;;;;15.54;55.65;101918.78;5088355;28;20047;-74
2021/12/26 07:19:52;;;;;;;1.65;0.77;;;;;;;15.65;54.97;101902.94;5088486;28;20527;-75
2021/12/26 07:22:39;;;;;;;1.13;0.70;;;;;;;15.73;54.18;101919.91;5088445;28;20082;-74
2021/12/26 07:25:08;;;;;;;0.95;0.70;;;;;;;15.86;54.00;101919.19;5099822;28;20127;-73
2021/12/26 07:27:36;;;;;;;0.75;0.63;;;;;;;15.97;53.33;101911.31;5093189;28;20051;-74
2021/12/26 07:30:28;;;;;;;2.03;0.90;;;;;;;16.11;52.43;101923.03;5070733;28;20052;-73
2021/12/26 07:32:56;;;;;;;2.03;0.73;;;;;;;16.22;51.80;101929.38;5066680;28;20044;-73
2021/12/26 07:35:25;;;;;;;1.60;0.82;;;;;;;16.38;52.17;101919.78;5050422;28;20040;-73
2021/12/26 07:37:59;;;;;;;1.02;0.70;;;;;;;16.54;51.86;101925.28;5069273;28;20056;-73
2021/12/26 07:40:27;;;;;;;0.93;0.70;;;;;;;16.62;50.56;101928.94;5085717;28;20094;-73
2021/12/26 07:42:58;;;;;;;0.80;0.40;;;;;;;16.73;50.36;101918.41;5066983;28;20036;-74
2021/12/26 07:45:51;;;;;;;1.23;0.65;;;;;;;16.91;50.77;101931.00;5020494;28;20044;-74
2021/12/26 07:48:20;;;;;;;0.85;0.60;;;;;;;17.03;50.03;101928.41;5058626;28;20131;-74
2021/12/26 07:50:47;;;;;;;0.60;0.52;;;;;;;17.15;49.64;101933.84;5069284;28;20056;-74
2021/12/26 07:53:34;;;;;;;1.08;0.70;;;;;;;17.30;49.16;101928.63;5070133;28;20445;-73
2021/12/26 07:56:20;;;;;;;0.85;0.82;;;;;;;17.44;49.02;101926.03;5075870;28;20106;-74
2021/12/26 07:59:11;;;;;;;1.83;0.80;;;;;;;17.55;48.07;101927.00;5077389;28;20043;-74
2021/12/26 08:02:21;;;;;;;1.27;0.85;;;;;;;17.64;47.43;101929.75;5040757;28;20051;-73
2021/12/26 08:05:08;;;;;;;2.00;0.70;;;;;;;17.75;47.79;101927.13;5062253;28;20040;-73
2021/12/26 08:07:56;;;;;;;1.83;0.77;;;;;;;17.88;46.89;101928.97;5051088;28;20037;-73
2021/12/26 08:10:24;;;;;;;1.48;0.75;;;;;;;17.96;46.81;101927.25;5089257;28;20127;-73
2021/12/26 08:12:52;;;;;;;1.40;0.90;;;;;;;18.07;47.06;101922.81;5090101;28;20074;-74
2021/12/26 08:15:19;;;;;;;3.45;1.30;;;;;;;18.19;46.90;101925.53;5103968;28;20131;-73
2021/12/26 08:17:49;;;;;;;2.58;1.10;;;;;;;18.35;46.57;101921.13;5090124;28;20128;-73
2021/12/26 08:20:16;;;;;;;3.72;0.82;;;;;;;18.47;46.12;101925.59;5089173;28;20377;-73
2021/12/26 08:22:44;;;;;;;1.02;0.68;;;;;;;18.55;45.30;101919.41;5076321;28;20113;-73
2021/12/26 08:25:12;;;;;;;1.13;0.90;;;;;;;18.62;44.88;101912.28;5076305;28;20036;-72
2021/12/26 08:27:40;;;;;;;1.85;0.63;;;;;;;18.66;44.26;101912.28;5071056;28;20040;-72
2021/12/26 08:30:10;;;;;;;1.30;1.20;;;;;;;18.80;44.42;101914.97;5067319;28;20060;-72
2021/12/26 08:32:40;;;;;;;1.63;1.00;;;;;;;18.81;43.19;101906.06;5083471;28;20131;-73
2021/12/26 08:35:10;;;;;;;2.15;1.27;;;;;;;18.89;43.33;101898.03;5067207;28;20475;-72
2021/12/26 08:37:40;;;;;;;1.10;0.63;;;;;;;18.99;43.68;101906.03;5084108;28;20039;-73
2021/12/26 08:40:09;;;;;;;2.08;0.90;;;;;;;19.08;43.13;101891.78;5065221;28;20044;-72
2021/12/26 08:42:36;;;;;;;1.80;0.85;;;;;;;19.17;42.97;101896.19;5071122;28;21336;-72
2021/12/26 08:45:05;;;;;;;1.30;0.73;;;;;;;19.23;41.94;101889.03;5064643;28;20041;-71
2021/12/26 08:47:33;;;;;;;1.23;0.90;;;;;;;19.29;41.89;101886.38;5067090;28;20128;-72
2021/12/26 08:50:01;;;;;;;1.13;0.73;;;;;;;19.35;41.85;101889.03;5084368;28;20408;-71
2021/12/26 08:52:30;;;;;;;1.95;0.70;;;;;;;19.42;41.12;101880.09;5069203;28;20048;-72
2021/12/26 08:54:57;;;;;;;1.63;0.70;;;;;;;19.43;40.67;101887.22;5058617;28;20057;-72
2021/12/26 08:57:25;;;;;;;1.48;0.65;;;;;;;19.48;40.25;101874.75;5067024;28;20036;-72
2021/12/26 08:59:52;;;;;;;3.30;0.73;;;;;;;19.53;40.96;101873.84;5068828;28;20036;-72
2021/12/26 09:02:20;;;;;;;1.73;0.82;;;;;;;19.57;40.33;101867.56;5067503;28;20068;-73
2021/12/26 09:04:48;;;;;;;1.00;0.80;;;;;;;19.58;39.93;101861.31;5084303;28;20045;-71
2021/12/26 09:07:16;;;;;;;2.38;0.70;;;;;;;19.53;39.05;101850.63;5067883;28;20123;-72
2021/12/26 09:09:46;;;;;;;3.03;1.10;;;;;;;19.48;39.27;101856.00;5065210;28;20564;-72
2021/12/26 09:12:13;;;;;;;0.85;0.65;;;;;;;19.53;39.66;101845.25;5082613;28;20052;-73
2021/12/26 09:14:41;;;;;;;8.40;4.22;;;;;;;19.56;39.58;101855.09;5066397;28;20053;-72
2021/12/26 09:17:09;;;;;;;4.60;1.63;;;;;;;19.65;39.64;101849.69;5067569;28;20078;-72
2021/12/26 09:19:37;;;;;;;4.85;1.88;;;;;;;19.76;39.63;101848.72;5067087;28;20064;-72
2021/12/26 09:22:08;;;;;;;1.27;1.10;;;;;;;19.82;38.87;101840.66;5065641;28;20052;-71
2021/12/26 09:24:36;;;;;;;2.33;0.60;;;;;;;19.82;38.46;101843.34;5066598;28;20470;-72
2021/12/26 09:27:06;;;;;;;2.55;1.02;;;;;;;19.84;38.13;101832.63;5065379;28;20488;-72
2021/12/26 09:29:34;;;;;;;36.60;24.27;;;;;;;19.92;38.49;101840.63;5062499;28;20041;-72
2021/12/26 09:32:02;;;;;;;9.18;5.63;;;;;;;20.02;38.58;101834.31;5065982;28;20060;-72
2021/12/26 09:34:32;;;;;;;1.98;1.20;;;;;;;20.02;37.98;101831.63;5065882;28;20086;-72
2021/12/26 09:37:00;;;;;;;1.58;1.02;;;;;;;20.06;37.47;101830.72;5062158;28;20514;-72
2021/12/26 09:39:28;;;;;;;5.38;3.45;;;;;;;20.11;37.50;101827.09;5047978;28;20033;-71
2021/12/26 09:41:56;;;;;;;3.28;1.88;;;;;;;20.21;37.96;101823.47;5065056;28;20049;-72
2021/12/26 09:44:25;;;;;;;0.70;0.70;;;;;;;20.28;37.57;101811.75;5047529;28;20044;-72
2021/12/26 09:46:53;;;;;;;1.85;1.45;;;;;;;20.25;37.09;101819.84;5072272;28;20043;-71
2021/12/26 09:49:21;;;;;;;2.65;0.70;;;;;;;20.25;37.15;101802.88;5070807;28;20051;-72
2021/12/26 09:51:52;;;;;;;1.95;0.90;;;;;;;20.34;37.41;101799.25;5071742;28;20090;-71
2021/12/26 09:54:20;;;;;;;2.67;0.55;;;;;;;20.27;37.45;101793.03;5087245;28;20608;-71
2021/12/26 09:56:48;;;;;;;1.23;0.57;;;;;;;20.23;36.89;101796.63;5092818;28;20116;-72
2021/12/26 09:59:18;;;;;;;1.25;0.60;;;;;;;20.18;36.92;101793.97;5092353;28;20044;-71
2021/12/26 10:01:50;;;;;;;1.35;0.77;;;;;;;20.23;36.80;101794.81;5092672;28;20055;-71
2021/12/26 10:04:20;;;;;;;1.45;0.80;;;;;;;20.18;36.88;101793.09;5091157;28;20051;-71
2021/12/26 10:06:49;;;;;;;5.45;1.38;;;;;;;20.16;37.56;101787.72;5087502;28;20572;-71
2021/12/26 10:09:18;;;;;;;2.63;1.02;;;;;;;20.24;37.73;101787.66;5091848;28;20032;-71
2021/12/26 10:11:48;;;;;;;2.30;0.65;;;;;;;20.29;37.85;101788.50;5090724;28;20579;-71
2021/12/26 10:14:17;;;;;;;1.25;0.60;;;;;;;20.33;36.89;101774.22;5091440;28;20075;-72
2021/12/26 10:16:49;;;;;;;1.40;0.60;;;;;;;20.23;36.41;101780.53;5091411;28;20119;-72
2021/12/26 10:19:17;;;;;;;2.92;0.60;;;;;;;20.21;37.22;101774.31;5104263;28;20403;-72
2021/12/26 10:21:47;;;;;;;2.05;0.90;;;;;;;20.29;37.51;101776.00;5092271;28;20040;-71
2021/12/26 10:24:18;;;;;;;1.70;0.60;;;;;;;20.37;37.42;101770.59;5092404;28;20036;-71
2021/12/26 10:26:51;;;;;;;4.20;0.52;;;;;;;20.31;36.73;101759.91;5092020;28;20032;-71
2021/12/26 10:29:26;;;;;;;1.55;0.75;;;;;;;20.29;37.21;101769.75;5092262;28;20404;-71
2021/12/26 10:32:02;;;;;;;1.27;0.70;;;;;;;20.37;37.31;101773.28;5090772;28;20043;-72
2021/12/26 10:34:34;;;;;;;2.25;0.95;;;;;;;20.47;37.53;101769.66;5090205;28;20036;-72
2021/12/26 10:37:04;;;;;;;0.70;0.70;;;;;;;20.52;37.33;101769.59;5074308;28;20043;-72
2021/12/26 10:39:34;;;;;;;1.17;0.60;;;;;;;20.55;37.11;101769.53;5073953;28;20048;-72
2021/12/26 10:42:03;;;;;;;1.63;0.80;;;;;;;20.58;37.24;101775.78;5090584;28;20446;-71
2021/12/26 10:44:35;;;;;;;1.40;0.75;;;;;;;20.61;37.04;101773.06;5074118;28;20044;-72
2021/12/26 10:47:07;;;;;;;1.65;0.68;;;;;;;20.58;36.19;101778.47;5090159;28;20047;-71
2021/12/26 10:49:38;;;;;;;2.55;0.52;;;;;;;20.58;36.17;101778.47;5091906;28;20036;-72
2021/12/26 10:52:28;;;;;;;2.03;0.73;;;;;;;20.64;37.17;101770.38;5070353;28;20086;-71
2021/12/26 10:54:59;;;;;;;2.33;0.90;;;;;;;20.71;36.70;101775.66;5071383;28;20033;-72
2021/12/26 10:57:31;;;;;;;0.93;0.60;;;;;;;20.74;36.42;101762.22;5070223;28;20037;-72
2021/12/26 11:00:02;;;;;;;2.50;0.88;;;;;;;20.70;36.53;101761.34;5071433;28;20575;-72
2021/12/26 11:02:34;;;;;;;1.23;0.80;;;;;;;20.69;36.65;101756.88;5071194;28;20127;-71
2021/12/26 11:05:05;;;;;;;2.60;0.77;;;;;;;20.71;37.18;101752.41;5071596;28;20512;-72
2021/12/26 11:07:48;;;;;;;1.95;0.77;;;;;;;20.75;36.43;101753.25;5071222;28;20039;-71
2021/12/26 11:10:20;;;;;;;0.70;0.68;;;;;;;20.75;36.47;101748.78;5086823;28;20045;-72
2021/12/26 11:12:52;;;;;;;3.05;0.57;;;;;;;20.75;36.65;101742.50;5070263;28;20086;-72
2021/12/26 11:15:22;;;;;;;0.95;0.63;;;;;;;20.78;36.65;101738.03;5086726;28;20044;-71
2021/12/26 11:17:55;;;;;;;2.15;0.65;;;;;;;20.79;36.18;101733.53;5070149;28;20098;-72
2021/12/26 11:20:29;;;;;;;0.65;0.57;;;;;;;20.75;35.98;101742.50;5070721;28;20493;-72
2021/12/26 11:22:57;;;;;;;1.30;0.60;;;;;;;20.69;36.51;101738.09;5070893;28;20052;-71
2021/12/26 11:25:25;;;;;;;1.27;0.70;;;;;;;20.69;36.83;101735.41;5070061;28;20040;-72
2021/12/26 11:27:53;;;;;;;1.38;0.73;;;;;;;20.69;36.68;101736.31;5071244;28;20501;-72
2021/12/26 11:30:22;;;;;;;2.33;1.15;;;;;;;20.66;36.66;101736.38;5070978;28;20075;-72
2021/12/26 11:32:52;;;;;;;2.45;0.63;;;;;;;20.70;37.12;101726.47;5071530;28;20492;-72
2021/12/26 11:35:21;;;;;;;1.05;0.47;;;;;;;20.68;36.57;101728.25;5069253;28;20059;-71
2021/12/26 11:37:50;;;;;;;2.22;0.57;;;;;;;20.67;36.28;101729.19;5070763;28;20050;-71
2021/12/26 11:40:37;;;;;;;3.30;0.80;;;;;;;20.63;35.59;101727.44;5070483;28;20048;-72
2021/12/26 11:43:56;;;;;;;0.80;0.63;;;;;;;20.55;35.54;101723.94;5070171;28;20080;-71
2021/12/26 11:46:58;;;;;;;4.82;0.98;;;;;;;20.49;35.49;101716.84;5078997;28;20108;-72
2021/12/26 11:50:04;;;;;;;1.70;0.80;;;;;;;20.38;35.02;101717.84;5070261;28;20500;-71
2021/12/26 11:53:09;;;;;;;0.98;0.70;;;;;;;20.30;35.91;101721.47;5069104;28;20033;-72